TAM3278 SBGR-SBCH
Flight info
| Callsign | TAM3278 |
|---|---|
| Flight time | 1h 5m |
| Altitude | 34000 |
| Route | SOVSI UZ85 RAXIT DCT UMDOR DCT |
| Aircraft | A320/M-SDE3FGHIRWY/LB1 |
Departure
| Time | 2026-04-25 21:12 |
|---|---|
| Airport | São Paulo/Guarulhos–Governor André Franco Montoro International Airport (SBGR) |
Arrival
| Time | 2026-04-25 22:18 |
|---|---|
| Airport | Serafin Enoss Bertaso Airport (SBCH) |
| Time | Latitude | Longitude | Altitude | Speed | Heading |
|---|---|---|---|---|---|
| 2026-04-25 20:42 | -23.42816 | -46.48348 | 2462 ft | 0 kts | 84° |
| 2026-04-25 20:57 | -23.42818 | -46.48368 | 2461 ft | 4 kts | 83° |
| 2026-04-25 20:58 | -23.42821 | -46.48396 | 2461 ft | 4 kts | 95° |
| 2026-04-25 20:58 | -23.42813 | -46.48422 | 2461 ft | 4 kts | 139° |
| 2026-04-25 20:58 | -23.42794 | -46.48431 | 2465 ft | 1 kts | 177° |
| 2026-04-25 20:58 | -23.42790 | -46.48431 | 2464 ft | 0 kts | 177° |
| 2026-04-25 21:01 | -23.42815 | -46.48434 | 2463 ft | 4 kts | 187° |
| 2026-04-25 21:01 | -23.42836 | -46.48437 | 2463 ft | 2 kts | 187° |
| 2026-04-25 21:01 | -23.42849 | -46.48438 | 2461 ft | 1 kts | 187° |
| 2026-04-25 21:01 | -23.42856 | -46.48439 | 2461 ft | 3 kts | 187° |
| 2026-04-25 21:02 | -23.42917 | -46.48450 | 2461 ft | 13 kts | 187° |
| 2026-04-25 21:02 | -23.43012 | -46.48450 | 2467 ft | 14 kts | 179° |
| 2026-04-25 21:02 | -23.43111 | -46.48432 | 2468 ft | 15 kts | 169° |
| 2026-04-25 21:02 | -23.43179 | -46.48362 | 2461 ft | 15 kts | 89° |
| 2026-04-25 21:03 | -23.43147 | -46.48243 | 2461 ft | 19 kts | 74° |
| 2026-04-25 21:03 | -23.43108 | -46.48101 | 2464 ft | 20 kts | 73° |
| 2026-04-25 21:03 | -23.43067 | -46.47948 | 2465 ft | 22 kts | 74° |
| 2026-04-25 21:03 | -23.43022 | -46.47785 | 2467 ft | 23 kts | 73° |
| 2026-04-25 21:04 | -23.42975 | -46.47611 | 2462 ft | 24 kts | 73° |
| 2026-04-25 21:04 | -23.42926 | -46.47429 | 2461 ft | 26 kts | 73° |
| 2026-04-25 21:04 | -23.42874 | -46.47239 | 2464 ft | 27 kts | 73° |
| 2026-04-25 21:04 | -23.42822 | -46.47044 | 2467 ft | 28 kts | 73° |
| 2026-04-25 21:05 | -23.42767 | -46.46843 | 2461 ft | 26 kts | 72° |
| 2026-04-25 21:05 | -23.42719 | -46.46668 | 2465 ft | 22 kts | 74° |
| 2026-04-25 21:05 | -23.42674 | -46.46501 | 2463 ft | 24 kts | 73° |
| 2026-04-25 21:05 | -23.42626 | -46.46325 | 2464 ft | 25 kts | 73° |
| 2026-04-25 21:06 | -23.42576 | -46.46140 | 2463 ft | 26 kts | 73° |
| 2026-04-25 21:06 | -23.42524 | -46.45951 | 2461 ft | 27 kts | 73° |
| 2026-04-25 21:06 | -23.42470 | -46.45752 | 2461 ft | 28 kts | 73° |
| 2026-04-25 21:06 | -23.42436 | -46.45627 | 2463 ft | 23 kts | 73° |
| 2026-04-25 21:07 | -23.42377 | -46.45411 | 2461 ft | 22 kts | 73° |
| 2026-04-25 21:07 | -23.42332 | -46.45246 | 2465 ft | 23 kts | 73° |
| 2026-04-25 21:07 | -23.42289 | -46.45085 | 2463 ft | 20 kts | 73° |
| 2026-04-25 21:07 | -23.42293 | -46.44954 | 2464 ft | 18 kts | 129° |
| 2026-04-25 21:08 | -23.42377 | -46.44912 | 2463 ft | 0 kts | 163° |
| 2026-04-25 21:11 | -23.42390 | -46.44908 | 2460 ft | 9 kts | 163° |
| 2026-04-25 21:11 | -23.42484 | -46.44911 | 2460 ft | 15 kts | 213° |
| 2026-04-25 21:11 | -23.42532 | -46.45014 | 2461 ft | 18 kts | 253° |
| 2026-04-25 21:11 | -23.42618 | -46.45339 | 2461 ft | 80 kts | 253° |
| 2026-04-25 21:12 | -23.42839 | -46.46151 | 2466 ft | 140 kts | 253° |
| 2026-04-25 21:12 | -23.43160 | -46.47344 | 2517 ft | 181 kts | 253° |
| 2026-04-25 21:12 | -23.43511 | -46.48691 | 3119 ft | 186 kts | 254° |
| 2026-04-25 21:12 | -23.43748 | -46.49590 | 3627 ft | 186 kts | 253° |
| 2026-04-25 21:13 | -23.44267 | -46.51495 | 4110 ft | 213 kts | 253° |
| 2026-04-25 21:13 | -23.44714 | -46.53125 | 4424 ft | 236 kts | 253° |
| 2026-04-25 21:13 | -23.45208 | -46.54929 | 4837 ft | 260 kts | 253° |
| 2026-04-25 21:13 | -23.45735 | -46.56853 | 5582 ft | 269 kts | 253° |
| 2026-04-25 21:14 | -23.46272 | -46.58829 | 6465 ft | 274 kts | 254° |
| 2026-04-25 21:14 | -23.46792 | -46.60811 | 7345 ft | 277 kts | 254° |
| 2026-04-25 21:14 | -23.47316 | -46.62858 | 8223 ft | 281 kts | 255° |
| 2026-04-25 21:14 | -23.47841 | -46.64924 | 9079 ft | 285 kts | 255° |
| 2026-04-25 21:15 | -23.48375 | -46.67020 | 9915 ft | 288 kts | 255° |
| 2026-04-25 21:15 | -23.48929 | -46.69192 | 10371 ft | 308 kts | 255° |
| 2026-04-25 21:15 | -23.49516 | -46.71489 | 10760 ft | 326 kts | 255° |
| 2026-04-25 21:15 | -23.50133 | -46.73896 | 11458 ft | 332 kts | 254° |
| 2026-04-25 21:16 | -23.50762 | -46.76341 | 12218 ft | 337 kts | 254° |
| 2026-04-25 21:16 | -23.51397 | -46.78812 | 12969 ft | 340 kts | 254° |
| 2026-04-25 21:16 | -23.52040 | -46.81314 | 13694 ft | 344 kts | 254° |
| 2026-04-25 21:16 | -23.52689 | -46.83839 | 14401 ft | 348 kts | 254° |
| 2026-04-25 21:17 | -23.53341 | -46.86393 | 15089 ft | 352 kts | 255° |
| 2026-04-25 21:17 | -23.53997 | -46.88975 | 15759 ft | 355 kts | 255° |
| 2026-04-25 21:17 | -23.54663 | -46.91588 | 16413 ft | 359 kts | 255° |
| 2026-04-25 21:17 | -23.55362 | -46.94212 | 17043 ft | 362 kts | 250° |
| 2026-04-25 21:18 | -23.56565 | -46.96589 | 17631 ft | 366 kts | 231° |
| 2026-04-25 21:18 | -23.58406 | -46.98531 | 18228 ft | 370 kts | 220° |
| 2026-04-25 21:18 | -23.60374 | -47.00359 | 18838 ft | 373 kts | 220° |
| 2026-04-25 21:18 | -23.62364 | -47.02199 | 19410 ft | 377 kts | 220° |
| 2026-04-25 21:19 | -23.64373 | -47.04056 | 19986 ft | 380 kts | 220° |
| 2026-04-25 21:19 | -23.66407 | -47.05941 | 20572 ft | 384 kts | 220° |
| 2026-04-25 21:19 | -23.68442 | -47.07833 | 21106 ft | 387 kts | 220° |
| 2026-04-25 21:19 | -23.70502 | -47.09752 | 21653 ft | 390 kts | 220° |
| 2026-04-25 21:20 | -23.72551 | -47.11665 | 22181 ft | 393 kts | 221° |
| 2026-04-25 21:20 | -23.73257 | -47.12324 | 22364 ft | 394 kts | 221° |
| 2026-04-25 21:20 | -23.76758 | -47.15592 | 23222 ft | 400 kts | 220° |
| 2026-04-25 21:20 | -23.78885 | -47.17574 | 23723 ft | 403 kts | 220° |
| 2026-04-25 21:21 | -23.81029 | -47.19575 | 24198 ft | 406 kts | 221° |
| 2026-04-25 21:21 | -23.83148 | -47.21557 | 24656 ft | 409 kts | 221° |
| 2026-04-25 21:21 | -23.85317 | -47.23586 | 25099 ft | 412 kts | 220° |
| 2026-04-25 21:21 | -23.87505 | -47.25630 | 25562 ft | 414 kts | 220° |
| 2026-04-25 21:22 | -23.89706 | -47.27684 | 25976 ft | 417 kts | 220° |
| 2026-04-25 21:22 | -23.91920 | -47.29751 | 26390 ft | 419 kts | 220° |
| 2026-04-25 21:22 | -23.94149 | -47.31829 | 26778 ft | 421 kts | 220° |
| 2026-04-25 21:22 | -23.96385 | -47.33917 | 27161 ft | 424 kts | 220° |
| 2026-04-25 21:23 | -23.98632 | -47.36020 | 27523 ft | 427 kts | 221° |
| 2026-04-25 21:23 | -24.00862 | -47.38117 | 27900 ft | 428 kts | 221° |
| 2026-04-25 21:23 | -24.03133 | -47.40252 | 28255 ft | 431 kts | 221° |
| 2026-04-25 21:23 | -24.05407 | -47.42388 | 28598 ft | 433 kts | 221° |
| 2026-04-25 21:24 | -24.07702 | -47.44544 | 28951 ft | 435 kts | 221° |
| 2026-04-25 21:24 | -24.10011 | -47.46695 | 29262 ft | 437 kts | 218° |
| 2026-04-25 21:24 | -24.12515 | -47.48595 | 29569 ft | 439 kts | 212° |
| 2026-04-25 21:24 | -24.15115 | -47.50393 | 29876 ft | 442 kts | 212° |
| 2026-04-25 21:25 | -24.17719 | -47.52193 | 30186 ft | 443 kts | 212° |
| 2026-04-25 21:25 | -24.20336 | -47.54004 | 30495 ft | 445 kts | 212° |
| 2026-04-25 21:25 | -24.22925 | -47.55800 | 30807 ft | 446 kts | 212° |
| 2026-04-25 21:25 | -24.25551 | -47.57631 | 31078 ft | 447 kts | 213° |
| 2026-04-25 21:26 | -24.28187 | -47.59470 | 31332 ft | 449 kts | 213° |
| 2026-04-25 21:26 | -24.30832 | -47.61317 | 31607 ft | 450 kts | 213° |
| 2026-04-25 21:26 | -24.33476 | -47.63159 | 31963 ft | 449 kts | 212° |
| 2026-04-25 21:26 | -24.36115 | -47.64996 | 32307 ft | 448 kts | 212° |
| 2026-04-25 21:27 | -24.38745 | -47.66826 | 32641 ft | 447 kts | 212° |
| 2026-04-25 21:27 | -24.41324 | -47.68662 | 32965 ft | 446 kts | 216° |
| 2026-04-25 21:27 | -24.43699 | -47.70846 | 33294 ft | 445 kts | 224° |
| 2026-04-25 21:27 | -24.45928 | -47.73204 | 33613 ft | 445 kts | 224° |
| 2026-04-25 21:28 | -24.48156 | -47.75568 | 33915 ft | 445 kts | 224° |
| 2026-04-25 21:28 | -24.50377 | -47.77928 | 33996 ft | 439 kts | 224° |
| 2026-04-25 21:28 | -24.54703 | -47.82517 | 34010 ft | 429 kts | 224° |
| 2026-04-25 21:29 | -24.58968 | -47.87042 | 34010 ft | 428 kts | 224° |
| 2026-04-25 21:29 | -24.63259 | -47.91587 | 34010 ft | 427 kts | 224° |
| 2026-04-25 21:30 | -24.67512 | -47.96105 | 34008 ft | 428 kts | 224° |
| 2026-04-25 21:30 | -24.71073 | -47.99890 | 34008 ft | 427 kts | 224° |
| 2026-04-25 21:31 | -24.76069 | -48.05211 | 34004 ft | 427 kts | 224° |
| 2026-04-25 21:31 | -24.80318 | -48.09744 | 34000 ft | 427 kts | 224° |
| 2026-04-25 21:32 | -24.84593 | -48.14305 | 33992 ft | 428 kts | 224° |
| 2026-04-25 21:32 | -24.88882 | -48.18881 | 33985 ft | 429 kts | 224° |
| 2026-04-25 21:33 | -24.93150 | -48.23435 | 33983 ft | 430 kts | 224° |
| 2026-04-25 21:33 | -24.97455 | -48.28036 | 33988 ft | 431 kts | 224° |
| 2026-04-25 21:34 | -25.01760 | -48.32643 | 33991 ft | 431 kts | 224° |
| 2026-04-25 21:34 | -25.05333 | -48.36475 | 33994 ft | 431 kts | 224° |
| 2026-04-25 21:35 | -25.10333 | -48.41850 | 34003 ft | 430 kts | 225° |
| 2026-04-25 21:35 | -25.13884 | -48.47130 | 34009 ft | 429 kts | 241° |
| 2026-04-25 21:36 | -25.16317 | -48.51907 | 34008 ft | 429 kts | 240° |
| 2026-04-25 21:36 | -25.19252 | -48.57639 | 34013 ft | 428 kts | 240° |
| 2026-04-25 21:37 | -25.21690 | -48.62401 | 34010 ft | 428 kts | 240° |
| 2026-04-25 21:37 | -25.25095 | -48.69063 | 34005 ft | 428 kts | 240° |
| 2026-04-25 21:38 | -25.28017 | -48.74793 | 34008 ft | 427 kts | 240° |
| 2026-04-25 21:38 | -25.30917 | -48.80481 | 34002 ft | 427 kts | 240° |
| 2026-04-25 21:39 | -25.33841 | -48.86218 | 33991 ft | 428 kts | 240° |
| 2026-04-25 21:39 | -25.36764 | -48.91963 | 33986 ft | 429 kts | 240° |
| 2026-04-25 21:40 | -25.39677 | -48.97703 | 33987 ft | 430 kts | 241° |
| 2026-04-25 21:40 | -25.42609 | -49.03495 | 33988 ft | 432 kts | 241° |
| 2026-04-25 21:41 | -25.45545 | -49.09293 | 33994 ft | 432 kts | 241° |
| 2026-04-25 21:41 | -25.48484 | -49.15101 | 33996 ft | 432 kts | 241° |
| 2026-04-25 21:42 | -25.51404 | -49.20880 | 34002 ft | 432 kts | 241° |
| 2026-04-25 21:42 | -25.54338 | -49.26683 | 34004 ft | 432 kts | 241° |
| 2026-04-25 21:43 | -25.57271 | -49.32500 | 34003 ft | 432 kts | 241° |
| 2026-04-25 21:43 | -25.60199 | -49.38327 | 34005 ft | 432 kts | 241° |
| 2026-04-25 21:44 | -25.63118 | -49.44147 | 34002 ft | 431 kts | 241° |
| 2026-04-25 21:45 | -25.67479 | -49.52834 | 34001 ft | 431 kts | 241° |
| 2026-04-25 21:45 | -25.70402 | -49.58660 | 34000 ft | 431 kts | 241° |
| 2026-04-25 21:46 | -25.73301 | -49.64451 | 33999 ft | 431 kts | 241° |
| 2026-04-25 21:46 | -25.76207 | -49.70273 | 33998 ft | 431 kts | 241° |
| 2026-04-25 21:47 | -25.79115 | -49.76111 | 33999 ft | 431 kts | 241° |
| 2026-04-25 21:47 | -25.82020 | -49.81938 | 34002 ft | 432 kts | 241° |
| 2026-04-25 21:48 | -25.84932 | -49.87777 | 34002 ft | 431 kts | 241° |
| 2026-04-25 21:48 | -25.87814 | -49.93577 | 34003 ft | 431 kts | 241° |
| 2026-04-25 21:49 | -25.90716 | -49.99427 | 34003 ft | 431 kts | 241° |
| 2026-04-25 21:49 | -25.93613 | -50.05270 | 34002 ft | 431 kts | 241° |
| 2026-04-25 21:50 | -25.96510 | -50.11106 | 34003 ft | 431 kts | 241° |
| 2026-04-25 21:50 | -25.99386 | -50.16902 | 34002 ft | 431 kts | 241° |
| 2026-04-25 21:51 | -26.02266 | -50.22748 | 34001 ft | 430 kts | 241° |
| 2026-04-25 21:51 | -26.05139 | -50.28587 | 34002 ft | 430 kts | 241° |
| 2026-04-25 21:52 | -26.08018 | -50.34430 | 34002 ft | 430 kts | 241° |
| 2026-04-25 21:52 | -26.10891 | -50.40259 | 33999 ft | 430 kts | 241° |
| 2026-04-25 21:53 | -26.13746 | -50.46073 | 34000 ft | 430 kts | 242° |
| 2026-04-25 21:53 | -26.16611 | -50.51922 | 33997 ft | 430 kts | 241° |
| 2026-04-25 21:54 | -26.19481 | -50.57768 | 33997 ft | 430 kts | 241° |
| 2026-04-25 21:54 | -26.22344 | -50.63608 | 33996 ft | 429 kts | 241° |
| 2026-04-25 21:55 | -26.25186 | -50.69417 | 33995 ft | 429 kts | 242° |
| 2026-04-25 21:55 | -26.28051 | -50.75281 | 33994 ft | 429 kts | 242° |
| 2026-04-25 21:56 | -26.30888 | -50.81126 | 33758 ft | 426 kts | 242° |
| 2026-04-25 21:56 | -26.31822 | -50.83044 | 33598 ft | 423 kts | 242° |
| 2026-04-25 21:56 | -26.33700 | -50.86897 | 33265 ft | 420 kts | 242° |
| 2026-04-25 21:56 | -26.35071 | -50.89715 | 33015 ft | 418 kts | 242° |
| 2026-04-25 21:57 | -26.36456 | -50.92560 | 32767 ft | 417 kts | 242° |
| 2026-04-25 21:57 | -26.37840 | -50.95406 | 32516 ft | 416 kts | 242° |
| 2026-04-25 21:57 | -26.39209 | -50.98224 | 32137 ft | 411 kts | 242° |
| 2026-04-25 21:57 | -26.40571 | -51.01026 | 31633 ft | 409 kts | 242° |
| 2026-04-25 21:58 | -26.41919 | -51.03806 | 31147 ft | 406 kts | 242° |
| 2026-04-25 21:58 | -26.43263 | -51.06581 | 30669 ft | 403 kts | 242° |
| 2026-04-25 21:58 | -26.44593 | -51.09326 | 30204 ft | 401 kts | 242° |
| 2026-04-25 21:58 | -26.45913 | -51.12054 | 29752 ft | 398 kts | 242° |
| 2026-04-25 21:59 | -26.47220 | -51.14763 | 29293 ft | 395 kts | 242° |
| 2026-04-25 21:59 | -26.48516 | -51.17454 | 28850 ft | 392 kts | 242° |
| 2026-04-25 21:59 | -26.49793 | -51.20100 | 28413 ft | 389 kts | 242° |
| 2026-04-25 22:00 | -26.52344 | -51.25377 | 27557 ft | 383 kts | 242° |
| 2026-04-25 22:00 | -26.53604 | -51.27987 | 27114 ft | 380 kts | 242° |
| 2026-04-25 22:00 | -26.54854 | -51.30586 | 26670 ft | 378 kts | 242° |
| 2026-04-25 22:00 | -26.56090 | -51.33163 | 26227 ft | 375 kts | 242° |
| 2026-04-25 22:01 | -26.57322 | -51.35729 | 25778 ft | 373 kts | 242° |
| 2026-04-25 22:01 | -26.58534 | -51.38247 | 25317 ft | 371 kts | 242° |
| 2026-04-25 22:01 | -26.59751 | -51.40775 | 24848 ft | 368 kts | 242° |
| 2026-04-25 22:01 | -26.60571 | -51.42476 | 24537 ft | 367 kts | 242° |
| 2026-04-25 22:02 | -26.62168 | -51.45794 | 23905 ft | 364 kts | 242° |
| 2026-04-25 22:02 | -26.63364 | -51.48287 | 23433 ft | 362 kts | 242° |
| 2026-04-25 22:02 | -26.64553 | -51.50768 | 22969 ft | 360 kts | 242° |
| 2026-04-25 22:02 | -26.65722 | -51.53206 | 22504 ft | 359 kts | 242° |
| 2026-04-25 22:03 | -26.66904 | -51.55670 | 22048 ft | 357 kts | 242° |
| 2026-04-25 22:03 | -26.68073 | -51.58109 | 21595 ft | 356 kts | 242° |
| 2026-04-25 22:03 | -26.69243 | -51.60552 | 21143 ft | 354 kts | 242° |
| 2026-04-25 22:03 | -26.70403 | -51.62980 | 20699 ft | 352 kts | 242° |
| 2026-04-25 22:04 | -26.71556 | -51.65396 | 20261 ft | 351 kts | 242° |
| 2026-04-25 22:04 | -26.72690 | -51.67768 | 19828 ft | 349 kts | 242° |
| 2026-04-25 22:04 | -26.73834 | -51.70162 | 19391 ft | 347 kts | 242° |
| 2026-04-25 22:04 | -26.74971 | -51.72545 | 18958 ft | 346 kts | 242° |
| 2026-04-25 22:05 | -26.76105 | -51.74916 | 18530 ft | 344 kts | 242° |
| 2026-04-25 22:05 | -26.77230 | -51.77271 | 18109 ft | 342 kts | 242° |
| 2026-04-25 22:05 | -26.78348 | -51.79617 | 17684 ft | 341 kts | 242° |
| 2026-04-25 22:05 | -26.79464 | -51.81958 | 17266 ft | 339 kts | 242° |
| 2026-04-25 22:06 | -26.80571 | -51.84283 | 16850 ft | 338 kts | 242° |
| 2026-04-25 22:06 | -26.81667 | -51.86595 | 16441 ft | 336 kts | 242° |
| 2026-04-25 22:06 | -26.82763 | -51.88904 | 16046 ft | 334 kts | 242° |
| 2026-04-25 22:06 | -26.83852 | -51.91197 | 15646 ft | 333 kts | 242° |
| 2026-04-25 22:07 | -26.84936 | -51.93477 | 15251 ft | 331 kts | 242° |
| 2026-04-25 22:07 | -26.85652 | -51.94983 | 14990 ft | 330 kts | 242° |
| 2026-04-25 22:07 | -26.87074 | -51.97978 | 14471 ft | 327 kts | 242° |
| 2026-04-25 22:07 | -26.88137 | -52.00224 | 14079 ft | 326 kts | 242° |
| 2026-04-25 22:08 | -26.89196 | -52.02464 | 13691 ft | 324 kts | 242° |
| 2026-04-25 22:08 | -26.90247 | -52.04686 | 13295 ft | 322 kts | 242° |
| 2026-04-25 22:08 | -26.91298 | -52.06899 | 12910 ft | 320 kts | 242° |
| 2026-04-25 22:08 | -26.92341 | -52.09094 | 12511 ft | 318 kts | 242° |
| 2026-04-25 22:09 | -26.93375 | -52.11278 | 12114 ft | 316 kts | 242° |
| 2026-04-25 22:09 | -26.94403 | -52.13456 | 11710 ft | 314 kts | 242° |
| 2026-04-25 22:09 | -26.95423 | -52.15621 | 11315 ft | 313 kts | 242° |
| 2026-04-25 22:09 | -26.96423 | -52.17747 | 10916 ft | 311 kts | 242° |
| 2026-04-25 22:10 | -26.97431 | -52.19882 | 10517 ft | 309 kts | 242° |
| 2026-04-25 22:10 | -26.98434 | -52.22005 | 10109 ft | 307 kts | 242° |
| 2026-04-25 22:10 | -26.99429 | -52.24108 | 9831 ft | 301 kts | 242° |
| 2026-04-25 22:10 | -27.00394 | -52.26151 | 9598 ft | 293 kts | 242° |
| 2026-04-25 22:11 | -27.01344 | -52.28173 | 9205 ft | 292 kts | 242° |
| 2026-04-25 22:11 | -27.02279 | -52.30163 | 8815 ft | 290 kts | 242° |
| 2026-04-25 22:11 | -27.03214 | -52.32157 | 8439 ft | 288 kts | 242° |
| 2026-04-25 22:11 | -27.04146 | -52.34144 | 8028 ft | 286 kts | 242° |
| 2026-04-25 22:12 | -27.05069 | -52.36104 | 7516 ft | 282 kts | 242° |
| 2026-04-25 22:12 | -27.05985 | -52.38043 | 6844 ft | 279 kts | 242° |
| 2026-04-25 22:12 | -27.06956 | -52.39932 | 6381 ft | 279 kts | 233° |
| 2026-04-25 22:12 | -27.07808 | -52.41012 | 6081 ft | 279 kts | 222° |
| 2026-04-25 22:13 | -27.09948 | -52.42589 | 5415 ft | 279 kts | 209° |
| 2026-04-25 22:13 | -27.11624 | -52.43625 | 4896 ft | 270 kts | 209° |
| 2026-04-25 22:13 | -27.13231 | -52.44610 | 4606 ft | 252 kts | 209° |
| 2026-04-25 22:13 | -27.14590 | -52.45684 | 4534 ft | 227 kts | 227° |
| 2026-04-25 22:14 | -27.15422 | -52.47093 | 4465 ft | 210 kts | 248° |
| 2026-04-25 22:14 | -27.15744 | -52.48626 | 4374 ft | 195 kts | 267° |
| 2026-04-25 22:14 | -27.15627 | -52.50087 | 4267 ft | 182 kts | 279° |
| 2026-04-25 22:14 | -27.15428 | -52.51439 | 4184 ft | 169 kts | 279° |
| 2026-04-25 22:15 | -27.15251 | -52.52678 | 4107 ft | 157 kts | 279° |
| 2026-04-25 22:15 | -27.15084 | -52.53862 | 4040 ft | 151 kts | 279° |
| 2026-04-25 22:15 | -27.14923 | -52.55017 | 3974 ft | 149 kts | 279° |
| 2026-04-25 22:16 | -27.14602 | -52.57295 | 3662 ft | 145 kts | 279° |
| 2026-04-25 22:16 | -27.14444 | -52.58410 | 3430 ft | 143 kts | 279° |
| 2026-04-25 22:16 | -27.14288 | -52.59513 | 3211 ft | 142 kts | 279° |
| 2026-04-25 22:16 | -27.14133 | -52.60609 | 2999 ft | 142 kts | 279° |
| 2026-04-25 22:17 | -27.13978 | -52.61705 | 2792 ft | 141 kts | 279° |
| 2026-04-25 22:17 | -27.13821 | -52.62796 | 2592 ft | 141 kts | 279° |
| 2026-04-25 22:17 | -27.13676 | -52.63871 | 2413 ft | 141 kts | 278° |
| 2026-04-25 22:17 | -27.13516 | -52.64956 | 2213 ft | 140 kts | 279° |
| 2026-04-25 22:18 | -27.13374 | -52.65963 | 2140 ft | 102 kts | 279° |
| 2026-04-25 22:18 | -27.13307 | -52.66433 | 2131 ft | 31 kts | 279° |
| 2026-04-25 22:18 | -27.13264 | -52.66636 | 2122 ft | 17 kts | 292° |
| 2026-04-25 22:18 | -27.13294 | -52.66652 | 2121 ft | 6 kts | 95° |
| 2026-04-25 22:19 | -27.13287 | -52.66577 | 2131 ft | 12 kts | 91° |
| 2026-04-25 22:19 | -27.13293 | -52.66527 | 2128 ft | 8 kts | 99° |
| 2026-04-25 22:19 | -27.13312 | -52.66401 | 2130 ft | 15 kts | 99° |
| 2026-04-25 22:19 | -27.13328 | -52.66282 | 2133 ft | 16 kts | 98° |
| 2026-04-25 22:20 | -27.13345 | -52.66161 | 2135 ft | 14 kts | 99° |
| 2026-04-25 22:20 | -27.13357 | -52.66071 | 2139 ft | 10 kts | 99° |
| 2026-04-25 22:20 | -27.13362 | -52.66029 | 2140 ft | 7 kts | 88° |
| 2026-04-25 22:20 | -27.13335 | -52.66002 | 2140 ft | 5 kts | 27° |
| 2026-04-25 22:21 | -27.13294 | -52.66005 | 2138 ft | 5 kts | 336° |
| 2026-04-25 22:21 | -27.13265 | -52.66007 | 2136 ft | 6 kts | 23° |
| 2026-04-25 22:21 | -27.13244 | -52.65982 | 2135 ft | 0 kts | 48° |